sensor_id;sensor_type;location;lat;lon;timestamp;P1;P2;P0
77699;PMS5003;66867;42.658;23.320;2023-08-06T00:00:37;6;6;
77699;PMS5003;66867;42.658;23.320;2023-08-06T00:01:00;5;5;
77699;PMS5003;66867;42.658;23.320;2023-08-06T00:02:00;7;5;
77699;PMS5003;66867;42.658;23.320;2023-08-06T00:03:00;6;6;
77699;PMS5003;66867;42.658;23.320;2023-08-06T00:04:00;5;5;
77699;PMS5003;66867;42.658;23.320;2023-08-06T00:05:00;6;6;
77699;PMS5003;66867;42.658;23.320;2023-08-06T00:06:00;4;4;
77699;PMS5003;66867;42.658;23.320;2023-08-06T00:07:00;5;4;
77699;PMS5003;66867;42.658;23.320;2023-08-06T00:08:00;5;5;
77699;PMS5003;66867;42.658;23.320;2023-08-06T00:09:00;5;5;
77699;PMS5003;66867;42.658;23.320;2023-08-06T00:10:00;7;7;
77699;PMS5003;66867;42.658;23.320;2023-08-06T00:11:00;7;7;
77699;PMS5003;66867;42.658;23.320;2023-08-06T00:12:00;6;6;
77699;PMS5003;66867;42.658;23.320;2023-08-06T00:13:00;5;5;
77699;PMS5003;66867;42.658;23.320;2023-08-06T00:14:00;5;5;
77699;PMS5003;66867;42.658;23.320;2023-08-06T00:15:00;6;6;
77699;PMS5003;66867;42.658;23.320;2023-08-06T00:16:11;5;5;
77699;PMS5003;66867;42.658;23.320;2023-08-06T00:17:00;6;5;
77699;PMS5003;66867;42.658;23.320;2023-08-06T00:18:00;5;5;
77699;PMS5003;66867;42.658;23.320;2023-08-06T00:19:00;4;4;
77699;PMS5003;66867;42.658;23.320;2023-08-06T00:20:01;7;6;
77699;PMS5003;66867;42.658;23.320;2023-08-06T00:21:00;6;6;
77699;PMS5003;66867;42.658;23.320;2023-08-06T00:22:00;4;4;
77699;PMS5003;66867;42.658;23.320;2023-08-06T00:23:00;4;4;
77699;PMS5003;66867;42.658;23.320;2023-08-06T00:24:00;5;5;
77699;PMS5003;66867;42.658;23.320;2023-08-06T00:25:00;7;6;
77699;PMS5003;66867;42.658;23.320;2023-08-06T00:26:00;6;5;
77699;PMS5003;66867;42.658;23.320;2023-08-06T00:27:00;4;4;
77699;PMS5003;66867;42.658;23.320;2023-08-06T00:28:00;6;5;
77699;PMS5003;66867;42.658;23.320;2023-08-06T00:29:00;5;4;
77699;PMS5003;66867;42.658;23.320;2023-08-06T00:30:00;4;4;
77699;PMS5003;66867;42.658;23.320;2023-08-06T00:31:00;5;5;
77699;PMS5003;66867;42.658;23.320;2023-08-06T00:32:00;6;6;
77699;PMS5003;66867;42.658;23.320;2023-08-06T00:33:00;5;5;
77699;PMS5003;66867;42.658;23.320;2023-08-06T00:34:00;4;4;
77699;PMS5003;66867;42.658;23.320;2023-08-06T00:35:00;5;5;
77699;PMS5003;66867;42.658;23.320;2023-08-06T00:36:00;5;5;
77699;PMS5003;66867;42.658;23.320;2023-08-06T00:37:00;5;5;
77699;PMS5003;66867;42.658;23.320;2023-08-06T00:38:00;6;5;
77699;PMS5003;66867;42.658;23.320;2023-08-06T00:39:00;7;6;
77699;PMS5003;66867;42.658;23.320;2023-08-06T00:40:00;7;6;
77699;PMS5003;66867;42.658;23.320;2023-08-06T00:41:00;7;7;
77699;PMS5003;66867;42.658;23.320;2023-08-06T00:42:00;5;5;
77699;PMS5003;66867;42.658;23.320;2023-08-06T00:43:00;4;4;
77699;PMS5003;66867;42.658;23.320;2023-08-06T00:44:00;4;4;
77699;PMS5003;66867;42.658;23.320;2023-08-06T00:45:00;6;6;
77699;PMS5003;66867;42.658;23.320;2023-08-06T00:46:00;4;4;
77699;PMS5003;66867;42.658;23.320;2023-08-06T00:47:01;4;4;
77699;PMS5003;66867;42.658;23.320;2023-08-06T00:48:01;4;4;
77699;PMS5003;66867;42.658;23.320;2023-08-06T00:49:00;4;4;
77699;PMS5003;66867;42.658;23.320;2023-08-06T00:50:00;4;4;
77699;PMS5003;66867;42.658;23.320;2023-08-06T00:51:01;5;4;
77699;PMS5003;66867;42.658;23.320;2023-08-06T00:52:00;4;4;
77699;PMS5003;66867;42.658;23.320;2023-08-06T00:53:00;6;6;
77699;PMS5003;66867;42.658;23.320;2023-08-06T00:54:01;4;4;
77699;PMS5003;66867;42.658;23.320;2023-08-06T00:55:00;5;5;
77699;PMS5003;66867;42.658;23.320;2023-08-06T00:56:00;5;5;
77699;PMS5003;66867;42.658;23.320;2023-08-06T00:57:01;7;6;
77699;PMS5003;66867;42.658;23.320;2023-08-06T00:58:01;6;6;
77699;PMS5003;66867;42.658;23.320;2023-08-06T00:59:00;4;4;
77699;PMS5003;66867;42.658;23.320;2023-08-06T01:00:00;6;6;
77699;PMS5003;66867;42.658;23.320;2023-08-06T01:01:00;5;5;
77699;PMS5003;66867;42.658;23.320;2023-08-06T01:02:00;5;5;
77699;PMS5003;66867;42.658;23.320;2023-08-06T01:03:00;5;4;
77699;PMS5003;66867;42.658;23.320;2023-08-06T01:04:01;7;7;
77699;PMS5003;66867;42.658;23.320;2023-08-06T01:05:00;5;5;
77699;PMS5003;66867;42.658;23.320;2023-08-06T01:06:00;6;6;
77699;PMS5003;66867;42.658;23.320;2023-08-06T01:07:08;6;6;
77699;PMS5003;66867;42.658;23.320;2023-08-06T01:09:09;5;5;
77699;PMS5003;66867;42.658;23.320;2023-08-06T01:12:06;6;6;
77699;PMS5003;66867;42.658;23.320;2023-08-06T01:14:06;7;7;
77699;PMS5003;66867;42.658;23.320;2023-08-06T01:16:01;6;6;
77699;PMS5003;66867;42.658;23.320;2023-08-06T01:17:01;7;7;
77699;PMS5003;66867;42.658;23.320;2023-08-06T01:18:00;8;8;
77699;PMS5003;66867;42.658;23.320;2023-08-06T01:19:00;8;8;
77699;PMS5003;66867;42.658;23.320;2023-08-06T01:20:00;8;7;
77699;PMS5003;66867;42.658;23.320;2023-08-06T01:21:00;9;9;
77699;PMS5003;66867;42.658;23.320;2023-08-06T01:22:00;9;8;
77699;PMS5003;66867;42.658;23.320;2023-08-06T01:23:00;7;7;
77699;PMS5003;66867;42.658;23.320;2023-08-06T01:24:00;8;8;
77699;PMS5003;66867;42.658;23.320;2023-08-06T01:25:00;8;8;
77699;PMS5003;66867;42.658;23.320;2023-08-06T01:26:13;7;7;
77699;PMS5003;66867;42.658;23.320;2023-08-06T01:27:11;4;4;
77699;PMS5003;66867;42.658;23.320;2023-08-06T01:28:08;8;8;
77699;PMS5003;66867;42.658;23.320;2023-08-06T01:30:15;7;7;
77699;PMS5003;66867;42.658;23.320;2023-08-06T01:31:02;7;7;
77699;PMS5003;66867;42.658;23.320;2023-08-06T01:32:01;8;8;
77699;PMS5003;66867;42.658;23.320;2023-08-06T01:33:04;5;5;
77699;PMS5003;66867;42.658;23.320;2023-08-06T01:34:03;6;5;
77699;PMS5003;66867;42.658;23.320;2023-08-06T01:35:00;6;5;
77699;PMS5003;66867;42.658;23.320;2023-08-06T01:36:01;8;8;
77699;PMS5003;66867;42.658;23.320;2023-08-06T01:37:00;8;7;
77699;PMS5003;66867;42.658;23.320;2023-08-06T01:38:00;9;8;
77699;PMS5003;66867;42.658;23.320;2023-08-06T01:39:00;8;7;
77699;PMS5003;66867;42.658;23.320;2023-08-06T01:40:00;9;7;
77699;PMS5003;66867;42.658;23.320;2023-08-06T01:41:00;7;7;
77699;PMS5003;66867;42.658;23.320;2023-08-06T01:42:00;8;7;
77699;PMS5003;66867;42.658;23.320;2023-08-06T01:43:00;7;6;
77699;PMS5003;66867;42.658;23.320;2023-08-06T01:44:00;6;6;
77699;PMS5003;66867;42.658;23.320;2023-08-06T01:45:00;6;6;
77699;PMS5003;66867;42.658;23.320;2023-08-06T01:46:00;7;7;
77699;PMS5003;66867;42.658;23.320;2023-08-06T01:47:00;7;7;
77699;PMS5003;66867;42.658;23.320;2023-08-06T01:48:00;9;8;
77699;PMS5003;66867;42.658;23.320;2023-08-06T01:49:00;6;6;
77699;PMS5003;66867;42.658;23.320;2023-08-06T01:50:00;6;6;
77699;PMS5003;66867;42.658;23.320;2023-08-06T01:51:00;7;7;
77699;PMS5003;66867;42.658;23.320;2023-08-06T01:52:00;9;9;
77699;PMS5003;66867;42.658;23.320;2023-08-06T01:53:00;6;6;
77699;PMS5003;66867;42.658;23.320;2023-08-06T01:54:00;8;7;
77699;PMS5003;66867;42.658;23.320;2023-08-06T01:55:00;5;5;
77699;PMS5003;66867;42.658;23.320;2023-08-06T01:56:00;8;8;
77699;PMS5003;66867;42.658;23.320;2023-08-06T01:57:00;10;8;
77699;PMS5003;66867;42.658;23.320;2023-08-06T01:58:00;6;6;
77699;PMS5003;66867;42.658;23.320;2023-08-06T01:59:00;9;8;
77699;PMS5003;66867;42.658;23.320;2023-08-06T02:00:00;6;6;
77699;PMS5003;66867;42.658;23.320;2023-08-06T02:01:01;8;7;
77699;PMS5003;66867;42.658;23.320;2023-08-06T02:02:00;5;5;
77699;PMS5003;66867;42.658;23.320;2023-08-06T02:03:00;7;7;
77699;PMS5003;66867;42.658;23.320;2023-08-06T02:04:00;11;10;
77699;PMS5003;66867;42.658;23.320;2023-08-06T02:05:00;7;7;
77699;PMS5003;66867;42.658;23.320;2023-08-06T02:06:00;6;6;
77699;PMS5003;66867;42.658;23.320;2023-08-06T02:07:00;5;5;
77699;PMS5003;66867;42.658;23.320;2023-08-06T02:08:00;7;6;
77699;PMS5003;66867;42.658;23.320;2023-08-06T02:09:00;6;6;
77699;PMS5003;66867;42.658;23.320;2023-08-06T02:10:00;7;6;
77699;PMS5003;66867;42.658;23.320;2023-08-06T02:11:00;8;8;
77699;PMS5003;66867;42.658;23.320;2023-08-06T02:12:00;6;5;
77699;PMS5003;66867;42.658;23.320;2023-08-06T02:13:00;5;5;
77699;PMS5003;66867;42.658;23.320;2023-08-06T02:14:00;6;6;
77699;PMS5003;66867;42.658;23.320;2023-08-06T02:15:00;7;6;
77699;PMS5003;66867;42.658;23.320;2023-08-06T02:16:00;6;6;
77699;PMS5003;66867;42.658;23.320;2023-08-06T02:17:00;8;7;
77699;PMS5003;66867;42.658;23.320;2023-08-06T02:18:00;5;5;
77699;PMS5003;66867;42.658;23.320;2023-08-06T02:19:00;6;6;
77699;PMS5003;66867;42.658;23.320;2023-08-06T02:20:00;5;5;
77699;PMS5003;66867;42.658;23.320;2023-08-06T02:21:00;6;6;
77699;PMS5003;66867;42.658;23.320;2023-08-06T02:22:00;7;7;
77699;PMS5003;66867;42.658;23.320;2023-08-06T02:23:00;7;7;
77699;PMS5003;66867;42.658;23.320;2023-08-06T02:24:00;5;5;
77699;PMS5003;66867;42.658;23.320;2023-08-06T02:25:00;7;7;
77699;PMS5003;66867;42.658;23.320;2023-08-06T02:26:01;6;6;
77699;PMS5003;66867;42.658;23.320;2023-08-06T02:27:00;7;6;
77699;PMS5003;66867;42.658;23.320;2023-08-06T02:28:00;7;7;
77699;PMS5003;66867;42.658;23.320;2023-08-06T02:29:00;7;7;
77699;PMS5003;66867;42.658;23.320;2023-08-06T02:30:00;8;8;
77699;PMS5003;66867;42.658;23.320;2023-08-06T02:31:00;8;8;
77699;PMS5003;66867;42.658;23.320;2023-08-06T02:32:00;10;9;
77699;PMS5003;66867;42.658;23.320;2023-08-06T02:33:00;7;7;
77699;PMS5003;66867;42.658;23.320;2023-08-06T02:34:00;6;6;
77699;PMS5003;66867;42.658;23.320;2023-08-06T02:35:00;7;7;
77699;PMS5003;66867;42.658;23.320;2023-08-06T02:36:03;6;6;
77699;PMS5003;66867;42.658;23.320;2023-08-06T02:37:00;7;7;
77699;PMS5003;66867;42.658;23.320;2023-08-06T02:38:00;7;7;
77699;PMS5003;66867;42.658;23.320;2023-08-06T02:39:00;7;7;
77699;PMS5003;66867;42.658;23.320;2023-08-06T02:40:00;8;8;
77699;PMS5003;66867;42.658;23.320;2023-08-06T02:41:03;5;5;
77699;PMS5003;66867;42.658;23.320;2023-08-06T02:42:00;7;7;
77699;PMS5003;66867;42.658;23.320;2023-08-06T02:43:00;6;6;
77699;PMS5003;66867;42.658;23.320;2023-08-06T02:44:00;6;6;
77699;PMS5003;66867;42.658;23.320;2023-08-06T02:45:00;7;6;
77699;PMS5003;66867;42.658;23.320;2023-08-06T02:46:00;8;7;
77699;PMS5003;66867;42.658;23.320;2023-08-06T02:47:00;6;6;
77699;PMS5003;66867;42.658;23.320;2023-08-06T02:48:00;8;8;
77699;PMS5003;66867;42.658;23.320;2023-08-06T02:49:00;6;6;
77699;PMS5003;66867;42.658;23.320;2023-08-06T02:50:01;7;7;
77699;PMS5003;66867;42.658;23.320;2023-08-06T02:51:00;7;7;
77699;PMS5003;66867;42.658;23.320;2023-08-06T02:52:00;6;6;
77699;PMS5003;66867;42.658;23.320;2023-08-06T02:53:00;5;5;
77699;PMS5003;66867;42.658;23.320;2023-08-06T02:54:00;5;5;
77699;PMS5003;66867;42.658;23.320;2023-08-06T02:55:00;6;6;
77699;PMS5003;66867;42.658;23.320;2023-08-06T02:56:00;7;7;
77699;PMS5003;66867;42.658;23.320;2023-08-06T02:57:00;8;7;
77699;PMS5003;66867;42.658;23.320;2023-08-06T02:58:01;8;7;
77699;PMS5003;66867;42.658;23.320;2023-08-06T02:59:00;7;7;
77699;PMS5003;66867;42.658;23.320;2023-08-06T03:00:00;7;7;
77699;PMS5003;66867;42.658;23.320;2023-08-06T03:01:03;7;6;
77699;PMS5003;66867;42.658;23.320;2023-08-06T03:02:00;6;6;
77699;PMS5003;66867;42.658;23.320;2023-08-06T03:03:00;6;6;
77699;PMS5003;66867;42.658;23.320;2023-08-06T03:04:00;8;8;
77699;PMS5003;66867;42.658;23.320;2023-08-06T03:05:00;7;7;
77699;PMS5003;66867;42.658;23.320;2023-08-06T03:06:00;7;7;
77699;PMS5003;66867;42.658;23.320;2023-08-06T03:07:00;7;7;
77699;PMS5003;66867;42.658;23.320;2023-08-06T03:08:00;6;6;
77699;PMS5003;66867;42.658;23.320;2023-08-06T03:09:00;6;6;
77699;PMS5003;66867;42.658;23.320;2023-08-06T03:10:00;6;6;
77699;PMS5003;66867;42.658;23.320;2023-08-06T03:11:00;7;6;
77699;PMS5003;66867;42.658;23.320;2023-08-06T03:12:00;7;7;
77699;PMS5003;66867;42.658;23.320;2023-08-06T03:13:00;6;6;
77699;PMS5003;66867;42.658;23.320;2023-08-06T03:14:00;7;6;
77699;PMS5003;66867;42.658;23.320;2023-08-06T03:15:00;4;4;
77699;PMS5003;66867;42.658;23.320;2023-08-06T03:16:00;7;6;
77699;PMS5003;66867;42.658;23.320;2023-08-06T03:17:00;5;5;
77699;PMS5003;66867;42.658;23.320;2023-08-06T03:18:00;5;5;
77699;PMS5003;66867;42.658;23.320;2023-08-06T03:19:00;9;9;
77699;PMS5003;66867;42.658;23.320;2023-08-06T03:20:00;8;7;
77699;PMS5003;66867;42.658;23.320;2023-08-06T03:21:00;5;5;
77699;PMS5003;66867;42.658;23.320;2023-08-06T03:22:00;8;7;
77699;PMS5003;66867;42.658;23.320;2023-08-06T03:23:00;7;7;
77699;PMS5003;66867;42.658;23.320;2023-08-06T03:24:00;7;7;
77699;PMS5003;66867;42.658;23.320;2023-08-06T03:25:00;6;6;
77699;PMS5003;66867;42.658;23.320;2023-08-06T03:26:02;6;6;
77699;PMS5003;66867;42.658;23.320;2023-08-06T03:27:00;8;8;
77699;PMS5003;66867;42.658;23.320;2023-08-06T03:28:00;7;7;
77699;PMS5003;66867;42.658;23.320;2023-08-06T03:29:00;6;6;
77699;PMS5003;66867;42.658;23.320;2023-08-06T03:30:00;7;7;
77699;PMS5003;66867;42.658;23.320;2023-08-06T03:31:01;7;6;
77699;PMS5003;66867;42.658;23.320;2023-08-06T03:32:00;6;6;
77699;PMS5003;66867;42.658;23.320;2023-08-06T03:33:00;7;7;
77699;PMS5003;66867;42.658;23.320;2023-08-06T03:34:00;7;6;
77699;PMS5003;66867;42.658;23.320;2023-08-06T03:35:00;6;5;
77699;PMS5003;66867;42.658;23.320;2023-08-06T03:36:00;6;6;
77699;PMS5003;66867;42.658;23.320;2023-08-06T03:37:00;7;6;
77699;PMS5003;66867;42.658;23.320;2023-08-06T03:38:00;7;6;
77699;PMS5003;66867;42.658;23.320;2023-08-06T03:39:00;6;6;
77699;PMS5003;66867;42.658;23.320;2023-08-06T03:40:00;7;7;
77699;PMS5003;66867;42.658;23.320;2023-08-06T03:41:00;6;6;
77699;PMS5003;66867;42.658;23.320;2023-08-06T03:42:00;7;6;
77699;PMS5003;66867;42.658;23.320;2023-08-06T03:43:00;8;8;
77699;PMS5003;66867;42.658;23.320;2023-08-06T03:44:00;6;6;
77699;PMS5003;66867;42.658;23.320;2023-08-06T03:45:00;6;6;
77699;PMS5003;66867;42.658;23.320;2023-08-06T03:46:00;6;6;
77699;PMS5003;66867;42.658;23.320;2023-08-06T03:47:00;7;6;
77699;PMS5003;66867;42.658;23.320;2023-08-06T03:48:00;8;8;
77699;PMS5003;66867;42.658;23.320;2023-08-06T03:49:00;7;7;
77699;PMS5003;66867;42.658;23.320;2023-08-06T03:50:00;6;6;
77699;PMS5003;66867;42.658;23.320;2023-08-06T03:51:00;4;4;
77699;PMS5003;66867;42.658;23.320;2023-08-06T03:52:00;6;5;
77699;PMS5003;66867;42.658;23.320;2023-08-06T03:53:00;6;6;
77699;PMS5003;66867;42.658;23.320;2023-08-06T03:54:00;7;7;
77699;PMS5003;66867;42.658;23.320;2023-08-06T03:55:00;5;5;
77699;PMS5003;66867;42.658;23.320;2023-08-06T03:56:00;7;7;
77699;PMS5003;66867;42.658;23.320;2023-08-06T03:57:00;5;5;
77699;PMS5003;66867;42.658;23.320;2023-08-06T03:58:00;7;7;
77699;PMS5003;66867;42.658;23.320;2023-08-06T03:59:00;7;6;
77699;PMS5003;66867;42.658;23.320;2023-08-06T04:00:00;9;9;
77699;PMS5003;66867;42.658;23.320;2023-08-06T04:01:01;6;6;
77699;PMS5003;66867;42.658;23.320;2023-08-06T04:02:00;6;6;
77699;PMS5003;66867;42.658;23.320;2023-08-06T04:03:00;7;7;
77699;PMS5003;66867;42.658;23.320;2023-08-06T04:04:00;8;8;
77699;PMS5003;66867;42.658;23.320;2023-08-06T04:05:01;9;7;
77699;PMS5003;66867;42.658;23.320;2023-08-06T04:06:02;5;5;
77699;PMS5003;66867;42.658;23.320;2023-08-06T04:07:00;4;4;
77699;PMS5003;66867;42.658;23.320;2023-08-06T04:08:00;4;4;
77699;PMS5003;66867;42.658;23.320;2023-08-06T04:09:00;6;6;
77699;PMS5003;66867;42.658;23.320;2023-08-06T04:10:02;7;7;
77699;PMS5003;66867;42.658;23.320;2023-08-06T04:11:00;7;6;
77699;PMS5003;66867;42.658;23.320;2023-08-06T04:12:00;6;6;
77699;PMS5003;66867;42.658;23.320;2023-08-06T04:13:00;8;8;
77699;PMS5003;66867;42.658;23.320;2023-08-06T04:14:00;7;7;
77699;PMS5003;66867;42.658;23.320;2023-08-06T04:15:00;6;6;
77699;PMS5003;66867;42.658;23.320;2023-08-06T04:16:01;7;7;
77699;PMS5003;66867;42.658;23.320;2023-08-06T04:17:00;6;6;
77699;PMS5003;66867;42.658;23.320;2023-08-06T04:18:00;6;6;
77699;PMS5003;66867;42.658;23.320;2023-08-06T04:19:00;6;6;
77699;PMS5003;66867;42.658;23.320;2023-08-06T04:20:00;4;4;
77699;PMS5003;66867;42.658;23.320;2023-08-06T04:21:01;4;4;
77699;PMS5003;66867;42.658;23.320;2023-08-06T04:22:00;7;6;
77699;PMS5003;66867;42.658;23.320;2023-08-06T04:23:05;6;5;
77699;PMS5003;66867;42.658;23.320;2023-08-06T04:24:00;5;5;
77699;PMS5003;66867;42.658;23.320;2023-08-06T04:25:00;6;5;
77699;PMS5003;66867;42.658;23.320;2023-08-06T04:26:00;6;6;
77699;PMS5003;66867;42.658;23.320;2023-08-06T04:27:00;6;5;
77699;PMS5003;66867;42.658;23.320;2023-08-06T04:28:00;8;8;
77699;PMS5003;66867;42.658;23.320;2023-08-06T04:29:00;6;5;
77699;PMS5003;66867;42.658;23.320;2023-08-06T04:30:00;6;5;
77699;PMS5003;66867;42.658;23.320;2023-08-06T04:31:00;5;5;
77699;PMS5003;66867;42.658;23.320;2023-08-06T04:32:00;6;6;
77699;PMS5003;66867;42.658;23.320;2023-08-06T04:33:00;6;6;
77699;PMS5003;66867;42.658;23.320;2023-08-06T04:34:00;7;7;
77699;PMS5003;66867;42.658;23.320;2023-08-06T04:35:00;5;5;
77699;PMS5003;66867;42.658;23.320;2023-08-06T04:36:00;5;4;
77699;PMS5003;66867;42.658;23.320;2023-08-06T04:37:01;6;6;
77699;PMS5003;66867;42.658;23.320;2023-08-06T04:38:00;5;5;
77699;PMS5003;66867;42.658;23.320;2023-08-06T04:39:00;6;5;
77699;PMS5003;66867;42.658;23.320;2023-08-06T04:40:00;6;6;
77699;PMS5003;66867;42.658;23.320;2023-08-06T04:41:02;6;6;
77699;PMS5003;66867;42.658;23.320;2023-08-06T04:42:00;5;5;
77699;PMS5003;66867;42.658;23.320;2023-08-06T04:43:00;6;6;
77699;PMS5003;66867;42.658;23.320;2023-08-06T04:44:00;7;6;
77699;PMS5003;66867;42.658;23.320;2023-08-06T04:45:02;9;8;
77699;PMS5003;66867;42.658;23.320;2023-08-06T04:46:00;7;6;
77699;PMS5003;66867;42.658;23.320;2023-08-06T04:47:00;5;5;
77699;PMS5003;66867;42.658;23.320;2023-08-06T04:48:00;8;8;
77699;PMS5003;66867;42.658;23.320;2023-08-06T04:49:00;8;8;
77699;PMS5003;66867;42.658;23.320;2023-08-06T04:50:00;5;5;
77699;PMS5003;66867;42.658;23.320;2023-08-06T04:51:00;9;8;
77699;PMS5003;66867;42.658;23.320;2023-08-06T04:52:00;7;7;
77699;PMS5003;66867;42.658;23.320;2023-08-06T04:53:00;8;7;
77699;PMS5003;66867;42.658;23.320;2023-08-06T04:54:00;6;6;
77699;PMS5003;66867;42.658;23.320;2023-08-06T04:55:00;6;6;
77699;PMS5003;66867;42.658;23.320;2023-08-06T04:56:00;6;6;
77699;PMS5003;66867;42.658;23.320;2023-08-06T04:57:00;10;10;
77699;PMS5003;66867;42.658;23.320;2023-08-06T04:58:00;11;9;
77699;PMS5003;66867;42.658;23.320;2023-08-06T04:59:00;9;9;
77699;PMS5003;66867;42.658;23.320;2023-08-06T05:00:00;9;9;
77699;PMS5003;66867;42.658;23.320;2023-08-06T05:01:00;7;7;
77699;PMS5003;66867;42.658;23.320;2023-08-06T05:02:00;9;9;
77699;PMS5003;66867;42.658;23.320;2023-08-06T05:03:00;8;8;
77699;PMS5003;66867;42.658;23.320;2023-08-06T05:04:00;9;9;
77699;PMS5003;66867;42.658;23.320;2023-08-06T05:05:00;11;10;
77699;PMS5003;66867;42.658;23.320;2023-08-06T05:06:00;7;7;
77699;PMS5003;66867;42.658;23.320;2023-08-06T05:07:00;11;10;
77699;PMS5003;66867;42.658;23.320;2023-08-06T05:08:00;11;11;
77699;PMS5003;66867;42.658;23.320;2023-08-06T05:09:00;9;9;
77699;PMS5003;66867;42.658;23.320;2023-08-06T05:10:00;12;11;
77699;PMS5003;66867;42.658;23.320;2023-08-06T05:11:00;12;12;
77699;PMS5003;66867;42.658;23.320;2023-08-06T05:12:01;11;10;
77699;PMS5003;66867;42.658;23.320;2023-08-06T05:13:00;10;9;
77699;PMS5003;66867;42.658;23.320;2023-08-06T05:14:00;9;8;
77699;PMS5003;66867;42.658;23.320;2023-08-06T05:15:00;9;9;
77699;PMS5003;66867;42.658;23.320;2023-08-06T05:16:00;9;9;
77699;PMS5003;66867;42.658;23.320;2023-08-06T05:17:00;6;6;
77699;PMS5003;66867;42.658;23.320;2023-08-06T05:18:00;10;9;
77699;PMS5003;66867;42.658;23.320;2023-08-06T05:19:00;7;7;
77699;PMS5003;66867;42.658;23.320;2023-08-06T05:20:00;11;10;
77699;PMS5003;66867;42.658;23.320;2023-08-06T05:21:00;7;7;
77699;PMS5003;66867;42.658;23.320;2023-08-06T05:22:00;8;8;
77699;PMS5003;66867;42.658;23.320;2023-08-06T05:23:00;7;7;
77699;PMS5003;66867;42.658;23.320;2023-08-06T05:24:00;8;8;
77699;PMS5003;66867;42.658;23.320;2023-08-06T05:25:00;10;9;
77699;PMS5003;66867;42.658;23.320;2023-08-06T05:26:00;9;9;
77699;PMS5003;66867;42.658;23.320;2023-08-06T05:27:00;8;8;
77699;PMS5003;66867;42.658;23.320;2023-08-06T05:28:00;10;10;
77699;PMS5003;66867;42.658;23.320;2023-08-06T05:29:00;10;10;
77699;PMS5003;66867;42.658;23.320;2023-08-06T05:30:00;10;9;
77699;PMS5003;66867;42.658;23.320;2023-08-06T05:31:04;11;10;
77699;PMS5003;66867;42.658;23.320;2023-08-06T05:32:00;10;10;
77699;PMS5003;66867;42.658;23.320;2023-08-06T05:33:00;11;11;
77699;PMS5003;66867;42.658;23.320;2023-08-06T05:34:00;12;11;
77699;PMS5003;66867;42.658;23.320;2023-08-06T05:35:00;12;11;
77699;PMS5003;66867;42.658;23.320;2023-08-06T05:36:00;10;10;
77699;PMS5003;66867;42.658;23.320;2023-08-06T05:37:00;12;12;
77699;PMS5003;66867;42.658;23.320;2023-08-06T05:38:00;11;11;
77699;PMS5003;66867;42.658;23.320;2023-08-06T05:39:00;14;13;
77699;PMS5003;66867;42.658;23.320;2023-08-06T05:40:00;15;15;
77699;PMS5003;66867;42.658;23.320;2023-08-06T05:41:00;10;10;
77699;PMS5003;66867;42.658;23.320;2023-08-06T05:42:00;11;10;
77699;PMS5003;66867;42.658;23.320;2023-08-06T05:43:00;12;12;
77699;PMS5003;66867;42.658;23.320;2023-08-06T05:44:00;13;13;
77699;PMS5003;66867;42.658;23.320;2023-08-06T05:45:00;13;12;
77699;PMS5003;66867;42.658;23.320;2023-08-06T05:46:00;15;14;
77699;PMS5003;66867;42.658;23.320;2023-08-06T05:47:00;15;14;
77699;PMS5003;66867;42.658;23.320;2023-08-06T05:48:00;13;13;
77699;PMS5003;66867;42.658;23.320;2023-08-06T05:49:00;14;13;
77699;PMS5003;66867;42.658;23.320;2023-08-06T05:50:00;14;13;
77699;PMS5003;66867;42.658;23.320;2023-08-06T05:51:00;11;11;
77699;PMS5003;66867;42.658;23.320;2023-08-06T05:52:00;13;13;
77699;PMS5003;66867;42.658;23.320;2023-08-06T05:53:00;14;13;
77699;PMS5003;66867;42.658;23.320;2023-08-06T05:54:00;12;12;
77699;PMS5003;66867;42.658;23.320;2023-08-06T05:55:00;12;11;
77699;PMS5003;66867;42.658;23.320;2023-08-06T05:56:00;10;10;
77699;PMS5003;66867;42.658;23.320;2023-08-06T05:57:00;15;14;
77699;PMS5003;66867;42.658;23.320;2023-08-06T05:58:00;12;12;
77699;PMS5003;66867;42.658;23.320;2023-08-06T05:59:00;14;12;
77699;PMS5003;66867;42.658;23.320;2023-08-06T06:00:01;12;11;
77699;PMS5003;66867;42.658;23.320;2023-08-06T06:01:00;10;10;
77699;PMS5003;66867;42.658;23.320;2023-08-06T06:02:00;19;18;
77699;PMS5003;66867;42.658;23.320;2023-08-06T06:03:00;12;12;
77699;PMS5003;66867;42.658;23.320;2023-08-06T06:04:00;14;13;
77699;PMS5003;66867;42.658;23.320;2023-08-06T06:05:00;12;11;
77699;PMS5003;66867;42.658;23.320;2023-08-06T06:06:00;10;10;
77699;PMS5003;66867;42.658;23.320;2023-08-06T06:07:00;10;10;
77699;PMS5003;66867;42.658;23.320;2023-08-06T06:08:00;11;11;
77699;PMS5003;66867;42.658;23.320;2023-08-06T06:09:00;11;10;
77699;PMS5003;66867;42.658;23.320;2023-08-06T06:10:00;9;9;
77699;PMS5003;66867;42.658;23.320;2023-08-06T06:11:00;9;8;
77699;PMS5003;66867;42.658;23.320;2023-08-06T06:12:00;8;8;
77699;PMS5003;66867;42.658;23.320;2023-08-06T06:13:00;11;11;
77699;PMS5003;66867;42.658;23.320;2023-08-06T06:14:00;6;6;
77699;PMS5003;66867;42.658;23.320;2023-08-06T06:15:00;8;8;
77699;PMS5003;66867;42.658;23.320;2023-08-06T06:16:00;9;9;
77699;PMS5003;66867;42.658;23.320;2023-08-06T06:17:00;8;8;
77699;PMS5003;66867;42.658;23.320;2023-08-06T06:18:00;7;7;
77699;PMS5003;66867;42.658;23.320;2023-08-06T06:19:00;10;8;
77699;PMS5003;66867;42.658;23.320;2023-08-06T06:20:00;8;8;
77699;PMS5003;66867;42.658;23.320;2023-08-06T06:21:00;11;9;
77699;PMS5003;66867;42.658;23.320;2023-08-06T06:22:00;7;7;
77699;PMS5003;66867;42.658;23.320;2023-08-06T06:23:00;8;7;
77699;PMS5003;66867;42.658;23.320;2023-08-06T06:24:00;7;7;
77699;PMS5003;66867;42.658;23.320;2023-08-06T06:25:00;6;6;
77699;PMS5003;66867;42.658;23.320;2023-08-06T06:26:00;7;7;
77699;PMS5003;66867;42.658;23.320;2023-08-06T06:27:00;5;5;
77699;PMS5003;66867;42.658;23.320;2023-08-06T06:28:00;5;5;
77699;PMS5003;66867;42.658;23.320;2023-08-06T06:29:00;7;7;
77699;PMS5003;66867;42.658;23.320;2023-08-06T06:30:00;10;10;
77699;PMS5003;66867;42.658;23.320;2023-08-06T06:31:01;9;8;
77699;PMS5003;66867;42.658;23.320;2023-08-06T06:32:00;6;6;
77699;PMS5003;66867;42.658;23.320;2023-08-06T06:33:00;6;5;
77699;PMS5003;66867;42.658;23.320;2023-08-06T06:34:00;8;8;
77699;PMS5003;66867;42.658;23.320;2023-08-06T06:35:00;7;7;
77699;PMS5003;66867;42.658;23.320;2023-08-06T06:36:01;7;7;
77699;PMS5003;66867;42.658;23.320;2023-08-06T06:37:00;8;8;
77699;PMS5003;66867;42.658;23.320;2023-08-06T06:38:00;7;7;
77699;PMS5003;66867;42.658;23.320;2023-08-06T06:39:00;8;8;
77699;PMS5003;66867;42.658;23.320;2023-08-06T06:40:00;8;7;
77699;PMS5003;66867;42.658;23.320;2023-08-06T06:41:00;7;7;
77699;PMS5003;66867;42.658;23.320;2023-08-06T06:42:00;9;9;
77699;PMS5003;66867;42.658;23.320;2023-08-06T06:43:00;8;8;
77699;PMS5003;66867;42.658;23.320;2023-08-06T06:44:00;8;8;
77699;PMS5003;66867;42.658;23.320;2023-08-06T06:45:00;7;7;
77699;PMS5003;66867;42.658;23.320;2023-08-06T06:46:01;8;8;
77699;PMS5003;66867;42.658;23.320;2023-08-06T06:47:00;7;7;
77699;PMS5003;66867;42.658;23.320;2023-08-06T06:48:00;7;7;